sensor_id;sensor_type;location;lat;lon;timestamp;P1;durP1;ratioP1;P2;durP2;ratioP2
5549;SDS011;2798;42.716;23.256;2023-02-24T00:01:22;11.17;;;7.07;;
5549;SDS011;2798;42.716;23.256;2023-02-24T00:03:55;12.67;;;6.67;;
5549;SDS011;2798;42.716;23.256;2023-02-24T00:06:24;12.80;;;6.77;;
5549;SDS011;2798;42.716;23.256;2023-02-24T00:08:49;12.53;;;7.40;;
5549;SDS011;2798;42.716;23.256;2023-02-24T00:11:15;9.30;;;6.77;;
5549;SDS011;2798;42.716;23.256;2023-02-24T00:13:41;9.63;;;6.43;;
5549;SDS011;2798;42.716;23.256;2023-02-24T00:16:11;11.93;;;7.23;;
5549;SDS011;2798;42.716;23.256;2023-02-24T00:18:37;8.90;;;6.80;;
5549;SDS011;2798;42.716;23.256;2023-02-24T00:21:06;9.20;;;6.40;;
5549;SDS011;2798;42.716;23.256;2023-02-24T00:23:33;10.23;;;6.90;;
5549;SDS011;2798;42.716;23.256;2023-02-24T00:25:59;10.97;;;6.83;;
5549;SDS011;2798;42.716;23.256;2023-02-24T00:28:26;13.50;;;8.33;;
5549;SDS011;2798;42.716;23.256;2023-02-24T00:30:52;10.37;;;6.77;;
5549;SDS011;2798;42.716;23.256;2023-02-24T00:33:19;11.83;;;7.60;;
5549;SDS011;2798;42.716;23.256;2023-02-24T00:35:48;12.63;;;7.03;;
5549;SDS011;2798;42.716;23.256;2023-02-24T00:38:13;9.57;;;6.53;;
5549;SDS011;2798;42.716;23.256;2023-02-24T00:40:39;12.70;;;7.83;;
5549;SDS011;2798;42.716;23.256;2023-02-24T00:43:05;10.53;;;7.03;;
5549;SDS011;2798;42.716;23.256;2023-02-24T00:45:34;11.90;;;6.30;;
5549;SDS011;2798;42.716;23.256;2023-02-24T00:48:00;11.10;;;6.63;;
5549;SDS011;2798;42.716;23.256;2023-02-24T00:50:28;9.40;;;6.80;;
5549;SDS011;2798;42.716;23.256;2023-02-24T00:52:54;10.20;;;6.00;;
5549;SDS011;2798;42.716;23.256;2023-02-24T00:55:19;12.57;;;6.70;;
5549;SDS011;2798;42.716;23.256;2023-02-24T00:57:47;8.00;;;6.40;;
5549;SDS011;2798;42.716;23.256;2023-02-24T01:00:15;9.30;;;6.50;;
5549;SDS011;2798;42.716;23.256;2023-02-24T01:02:41;9.40;;;6.77;;
5549;SDS011;2798;42.716;23.256;2023-02-24T01:05:08;10.10;;;7.10;;
5549;SDS011;2798;42.716;23.256;2023-02-24T01:07:34;7.53;;;6.20;;
5549;SDS011;2798;42.716;23.256;2023-02-24T01:09:59;7.77;;;5.47;;
5549;SDS011;2798;42.716;23.256;2023-02-24T01:12:25;8.73;;;5.60;;
5549;SDS011;2798;42.716;23.256;2023-02-24T01:15:03;11.70;;;6.40;;
5549;SDS011;2798;42.716;23.256;2023-02-24T01:17:29;8.50;;;6.33;;
5549;SDS011;2798;42.716;23.256;2023-02-24T01:19:54;7.60;;;5.33;;
5549;SDS011;2798;42.716;23.256;2023-02-24T01:22:24;5.90;;;4.60;;
5549;SDS011;2798;42.716;23.256;2023-02-24T01:24:50;10.00;;;6.37;;
5549;SDS011;2798;42.716;23.256;2023-02-24T01:27:15;11.60;;;5.50;;
5549;SDS011;2798;42.716;23.256;2023-02-24T01:29:42;7.97;;;5.70;;
5549;SDS011;2798;42.716;23.256;2023-02-24T01:32:12;9.60;;;6.30;;
5549;SDS011;2798;42.716;23.256;2023-02-24T01:34:37;7.83;;;5.70;;
5549;SDS011;2798;42.716;23.256;2023-02-24T01:37:03;7.10;;;5.60;;
5549;SDS011;2798;42.716;23.256;2023-02-24T01:39:28;7.87;;;5.90;;
5549;SDS011;2798;42.716;23.256;2023-02-24T01:41:54;6.80;;;5.70;;
5549;SDS011;2798;42.716;23.256;2023-02-24T01:46:52;8.83;;;5.20;;
5549;SDS011;2798;42.716;23.256;2023-02-24T01:51:52;8.33;;;5.83;;
5549;SDS011;2798;42.716;23.256;2023-02-24T01:54:20;7.70;;;6.00;;
5549;SDS011;2798;42.716;23.256;2023-02-24T01:56:46;6.47;;;5.47;;
5549;SDS011;2798;42.716;23.256;2023-02-24T01:59:13;6.33;;;5.03;;
5549;SDS011;2798;42.716;23.256;2023-02-24T02:01:40;9.50;;;6.50;;
5549;SDS011;2798;42.716;23.256;2023-02-24T02:04:30;6.30;;;5.27;;
5549;SDS011;2798;42.716;23.256;2023-02-24T02:06:51;8.90;;;5.20;;
5549;SDS011;2798;42.716;23.256;2023-02-24T02:09:17;9.40;;;5.57;;
5549;SDS011;2798;42.716;23.256;2023-02-24T02:11:43;9.23;;;6.50;;
5549;SDS011;2798;42.716;23.256;2023-02-24T02:14:17;9.70;;;5.80;;
5549;SDS011;2798;42.716;23.256;2023-02-24T02:33:00;6.03;;;4.20;;
5549;SDS011;2798;42.716;23.256;2023-02-24T02:40:30;7.03;;;4.83;;
5549;SDS011;2798;42.716;23.256;2023-02-24T02:45:28;8.33;;;4.57;;
5549;SDS011;2798;42.716;23.256;2023-02-24T02:50:30;7.80;;;4.50;;
5549;SDS011;2798;42.716;23.256;2023-02-24T02:52:58;7.20;;;5.33;;
5549;SDS011;2798;42.716;23.256;2023-02-24T02:57:50;5.17;;;4.10;;
5549;SDS011;2798;42.716;23.256;2023-02-24T03:00:18;5.90;;;4.87;;
5549;SDS011;2798;42.716;23.256;2023-02-24T03:02:49;7.13;;;5.03;;
5549;SDS011;2798;42.716;23.256;2023-02-24T03:05:16;7.40;;;4.73;;
5549;SDS011;2798;42.716;23.256;2023-02-24T03:07:45;6.57;;;5.23;;
5549;SDS011;2798;42.716;23.256;2023-02-24T03:10:14;5.63;;;4.93;;
5549;SDS011;2798;42.716;23.256;2023-02-24T03:12:45;5.17;;;3.70;;
5549;SDS011;2798;42.716;23.256;2023-02-24T03:15:11;6.77;;;4.73;;
5549;SDS011;2798;42.716;23.256;2023-02-24T03:17:38;5.83;;;4.20;;
5549;SDS011;2798;42.716;23.256;2023-02-24T03:20:17;7.70;;;5.63;;
5549;SDS011;2798;42.716;23.256;2023-02-24T03:25:18;5.43;;;4.40;;
5549;SDS011;2798;42.716;23.256;2023-02-24T03:27:48;4.97;;;4.20;;
5549;SDS011;2798;42.716;23.256;2023-02-24T03:30:26;6.00;;;4.20;;
5549;SDS011;2798;42.716;23.256;2023-02-24T03:32:59;7.23;;;4.97;;
5549;SDS011;2798;42.716;23.256;2023-02-24T03:35:28;6.70;;;4.70;;
5549;SDS011;2798;42.716;23.256;2023-02-24T03:37:54;6.50;;;4.90;;
5549;SDS011;2798;42.716;23.256;2023-02-24T03:40:22;6.80;;;4.77;;
5549;SDS011;2798;42.716;23.256;2023-02-24T03:42:53;5.43;;;4.57;;
5549;SDS011;2798;42.716;23.256;2023-02-24T03:45:21;7.20;;;4.90;;
5549;SDS011;2798;42.716;23.256;2023-02-24T03:47:47;6.90;;;4.67;;
5549;SDS011;2798;42.716;23.256;2023-02-24T03:50:17;7.50;;;4.57;;
5549;SDS011;2798;42.716;23.256;2023-02-24T03:53:00;5.60;;;4.43;;
5549;SDS011;2798;42.716;23.256;2023-02-24T04:00:45;7.87;;;4.47;;
5549;SDS011;2798;42.716;23.256;2023-02-24T04:08:31;4.70;;;4.10;;
5549;SDS011;2798;42.716;23.256;2023-02-24T04:11:00;6.73;;;4.40;;
5549;SDS011;2798;42.716;23.256;2023-02-24T04:16:00;5.50;;;4.00;;
5549;SDS011;2798;42.716;23.256;2023-02-24T04:18:30;8.30;;;4.00;;
5549;SDS011;2798;42.716;23.256;2023-02-24T04:20:56;5.03;;;3.80;;
5549;SDS011;2798;42.716;23.256;2023-02-24T04:23:35;6.93;;;4.60;;
5549;SDS011;2798;42.716;23.256;2023-02-24T04:26:03;5.13;;;4.10;;
5549;SDS011;2798;42.716;23.256;2023-02-24T04:28:29;5.50;;;4.03;;
5549;SDS011;2798;42.716;23.256;2023-02-24T04:30:56;6.33;;;3.90;;
5549;SDS011;2798;42.716;23.256;2023-02-24T04:33:22;7.30;;;4.67;;
5549;SDS011;2798;42.716;23.256;2023-02-24T04:35:48;6.10;;;3.97;;
5549;SDS011;2798;42.716;23.256;2023-02-24T04:38:17;5.73;;;4.10;;
5549;SDS011;2798;42.716;23.256;2023-02-24T04:40:43;6.00;;;3.90;;
5549;SDS011;2798;42.716;23.256;2023-02-24T04:43:09;5.30;;;4.00;;
5549;SDS011;2798;42.716;23.256;2023-02-24T04:45:35;5.10;;;4.13;;
5549;SDS011;2798;42.716;23.256;2023-02-24T04:48:03;7.87;;;4.03;;
5549;SDS011;2798;42.716;23.256;2023-02-24T04:50:33;6.40;;;4.10;;
5549;SDS011;2798;42.716;23.256;2023-02-24T04:53:09;5.40;;;4.00;;
5549;SDS011;2798;42.716;23.256;2023-02-24T04:55:39;10.73;;;4.63;;
5549;SDS011;2798;42.716;23.256;2023-02-24T04:58:15;5.17;;;4.07;;
5549;SDS011;2798;42.716;23.256;2023-02-24T05:00:43;7.30;;;4.50;;
5549;SDS011;2798;42.716;23.256;2023-02-24T05:03:10;7.40;;;4.97;;
5549;SDS011;2798;42.716;23.256;2023-02-24T05:05:35;7.63;;;5.03;;
5549;SDS011;2798;42.716;23.256;2023-02-24T05:08:03;7.47;;;5.00;;
5549;SDS011;2798;42.716;23.256;2023-02-24T05:10:34;6.37;;;4.60;;
5549;SDS011;2798;42.716;23.256;2023-02-24T05:12:59;4.60;;;3.93;;
5549;SDS011;2798;42.716;23.256;2023-02-24T05:15:26;9.70;;;4.77;;
5549;SDS011;2798;42.716;23.256;2023-02-24T05:17:56;7.33;;;4.70;;
5549;SDS011;2798;42.716;23.256;2023-02-24T05:20:22;6.87;;;4.80;;
5549;SDS011;2798;42.716;23.256;2023-02-24T05:23:06;6.40;;;4.83;;
5549;SDS011;2798;42.716;23.256;2023-02-24T05:25:33;8.23;;;6.30;;
5549;SDS011;2798;42.716;23.256;2023-02-24T05:28:01;7.83;;;4.97;;
5549;SDS011;2798;42.716;23.256;2023-02-24T05:30:28;6.83;;;5.53;;
5549;SDS011;2798;42.716;23.256;2023-02-24T05:32:53;6.90;;;5.20;;
5549;SDS011;2798;42.716;23.256;2023-02-24T05:35:20;6.57;;;5.10;;
5549;SDS011;2798;42.716;23.256;2023-02-24T05:37:45;8.50;;;5.47;;
5549;SDS011;2798;42.716;23.256;2023-02-24T05:40:10;9.40;;;5.50;;
5549;SDS011;2798;42.716;23.256;2023-02-24T05:42:37;7.67;;;5.40;;
5549;SDS011;2798;42.716;23.256;2023-02-24T05:45:02;7.20;;;5.03;;
5549;SDS011;2798;42.716;23.256;2023-02-24T05:47:29;7.37;;;4.80;;
5549;SDS011;2798;42.716;23.256;2023-02-24T05:49:54;11.63;;;6.83;;
5549;SDS011;2798;42.716;23.256;2023-02-24T05:52:23;8.43;;;5.60;;
5549;SDS011;2798;42.716;23.256;2023-02-24T05:54:48;14.60;;;8.93;;
5549;SDS011;2798;42.716;23.256;2023-02-24T05:57:17;9.50;;;5.73;;
5549;SDS011;2798;42.716;23.256;2023-02-24T05:59:48;9.10;;;5.97;;
5549;SDS011;2798;42.716;23.256;2023-02-24T06:02:14;7.57;;;4.70;;
5549;SDS011;2798;42.716;23.256;2023-02-24T06:04:41;7.33;;;4.93;;
5549;SDS011;2798;42.716;23.256;2023-02-24T06:07:18;7.70;;;5.27;;
5549;SDS011;2798;42.716;23.256;2023-02-24T06:09:45;7.90;;;4.27;;
5549;SDS011;2798;42.716;23.256;2023-02-24T06:12:14;9.27;;;5.23;;
5549;SDS011;2798;42.716;23.256;2023-02-24T06:14:39;8.60;;;5.07;;
5549;SDS011;2798;42.716;23.256;2023-02-24T06:17:06;5.80;;;4.27;;
5549;SDS011;2798;42.716;23.256;2023-02-24T06:19:32;9.00;;;4.80;;
5549;SDS011;2798;42.716;23.256;2023-02-24T06:21:58;6.50;;;4.00;;
5549;SDS011;2798;42.716;23.256;2023-02-24T06:24:25;6.90;;;4.20;;
5549;SDS011;2798;42.716;23.256;2023-02-24T06:26:50;7.30;;;4.07;;
5549;SDS011;2798;42.716;23.256;2023-02-24T06:29:17;4.83;;;4.17;;
5549;SDS011;2798;42.716;23.256;2023-02-24T06:31:43;4.53;;;3.77;;
5549;SDS011;2798;42.716;23.256;2023-02-24T06:34:09;9.60;;;5.50;;
5549;SDS011;2798;42.716;23.256;2023-02-24T06:36:35;7.33;;;4.87;;
5549;SDS011;2798;42.716;23.256;2023-02-24T06:39:00;7.43;;;4.30;;
5549;SDS011;2798;42.716;23.256;2023-02-24T06:41:26;6.50;;;4.57;;
5549;SDS011;2798;42.716;23.256;2023-02-24T06:43:53;9.70;;;4.07;;
5549;SDS011;2798;42.716;23.256;2023-02-24T06:46:19;6.17;;;4.80;;
5549;SDS011;2798;42.716;23.256;2023-02-24T06:48:44;8.73;;;4.63;;
5549;SDS011;2798;42.716;23.256;2023-02-24T06:51:13;8.30;;;4.70;;
5549;SDS011;2798;42.716;23.256;2023-02-24T06:53:39;4.93;;;3.90;;
5549;SDS011;2798;42.716;23.256;2023-02-24T06:56:08;8.07;;;5.20;;
5549;SDS011;2798;42.716;23.256;2023-02-24T06:58:42;6.53;;;5.73;;
5549;SDS011;2798;42.716;23.256;2023-02-24T07:01:09;11.30;;;7.00;;
5549;SDS011;2798;42.716;23.256;2023-02-24T07:03:35;11.93;;;6.53;;
5549;SDS011;2798;42.716;23.256;2023-02-24T07:06:07;7.80;;;5.47;;
5549;SDS011;2798;42.716;23.256;2023-02-24T07:08:44;8.73;;;5.10;;
5549;SDS011;2798;42.716;23.256;2023-02-24T07:11:10;7.70;;;4.70;;
5549;SDS011;2798;42.716;23.256;2023-02-24T07:13:35;6.73;;;4.73;;
5549;SDS011;2798;42.716;23.256;2023-02-24T07:16:00;9.23;;;4.77;;
5549;SDS011;2798;42.716;23.256;2023-02-24T07:18:34;9.73;;;5.00;;
5549;SDS011;2798;42.716;23.256;2023-02-24T07:21:07;6.87;;;4.40;;
5549;SDS011;2798;42.716;23.256;2023-02-24T07:23:39;11.00;;;4.60;;
5549;SDS011;2798;42.716;23.256;2023-02-24T07:26:09;8.53;;;4.67;;
5549;SDS011;2798;42.716;23.256;2023-02-24T07:28:35;6.27;;;4.67;;
5549;SDS011;2798;42.716;23.256;2023-02-24T07:31:04;7.10;;;4.90;;
5549;SDS011;2798;42.716;23.256;2023-02-24T07:33:32;6.37;;;4.37;;
5549;SDS011;2798;42.716;23.256;2023-02-24T07:35:58;6.60;;;4.60;;
5549;SDS011;2798;42.716;23.256;2023-02-24T07:38:23;7.53;;;4.60;;
5549;SDS011;2798;42.716;23.256;2023-02-24T07:40:49;6.37;;;4.33;;
5549;SDS011;2798;42.716;23.256;2023-02-24T07:43:15;5.60;;;4.37;;
5549;SDS011;2798;42.716;23.256;2023-02-24T07:45:40;8.93;;;4.27;;
5549;SDS011;2798;42.716;23.256;2023-02-24T07:48:05;5.50;;;4.17;;
5549;SDS011;2798;42.716;23.256;2023-02-24T07:50:31;10.10;;;5.20;;
5549;SDS011;2798;42.716;23.256;2023-02-24T07:52:57;9.40;;;5.03;;
5549;SDS011;2798;42.716;23.256;2023-02-24T07:55:23;7.50;;;4.97;;
5549;SDS011;2798;42.716;23.256;2023-02-24T07:57:49;7.37;;;4.33;;
5549;SDS011;2798;42.716;23.256;2023-02-24T08:00:16;9.70;;;5.50;;
5549;SDS011;2798;42.716;23.256;2023-02-24T08:02:47;8.83;;;4.97;;
5549;SDS011;2798;42.716;23.256;2023-02-24T08:05:13;11.03;;;5.10;;
5549;SDS011;2798;42.716;23.256;2023-02-24T08:07:39;7.27;;;4.40;;
5549;SDS011;2798;42.716;23.256;2023-02-24T08:10:05;8.60;;;4.80;;
5549;SDS011;2798;42.716;23.256;2023-02-24T08:12:49;9.07;;;5.50;;
5549;SDS011;2798;42.716;23.256;2023-02-24T08:15:18;8.87;;;4.43;;
5549;SDS011;2798;42.716;23.256;2023-02-24T08:17:52;8.20;;;5.10;;
5549;SDS011;2798;42.716;23.256;2023-02-24T08:20:19;10.00;;;5.33;;
5549;SDS011;2798;42.716;23.256;2023-02-24T08:22:44;12.57;;;6.23;;
5549;SDS011;2798;42.716;23.256;2023-02-24T08:25:16;10.03;;;7.30;;
5549;SDS011;2798;42.716;23.256;2023-02-24T08:27:47;13.40;;;6.57;;
5549;SDS011;2798;42.716;23.256;2023-02-24T08:30:20;15.93;;;9.53;;
5549;SDS011;2798;42.716;23.256;2023-02-24T08:32:48;19.53;;;11.33;;
5549;SDS011;2798;42.716;23.256;2023-02-24T08:35:20;17.10;;;10.90;;
5549;SDS011;2798;42.716;23.256;2023-02-24T08:37:48;17.77;;;10.80;;
5549;SDS011;2798;42.716;23.256;2023-02-24T08:40:15;14.60;;;9.10;;
5549;SDS011;2798;42.716;23.256;2023-02-24T08:42:57;16.47;;;8.40;;
5549;SDS011;2798;42.716;23.256;2023-02-24T08:45:26;12.73;;;7.57;;
5549;SDS011;2798;42.716;23.256;2023-02-24T08:47:57;12.03;;;6.50;;
5549;SDS011;2798;42.716;23.256;2023-02-24T08:50:27;11.93;;;6.70;;
5549;SDS011;2798;42.716;23.256;2023-02-24T08:52:58;11.03;;;6.07;;
5549;SDS011;2798;42.716;23.256;2023-02-24T08:55:25;12.87;;;5.87;;
5549;SDS011;2798;42.716;23.256;2023-02-24T08:57:55;10.30;;;6.13;;
5549;SDS011;2798;42.716;23.256;2023-02-24T09:00:20;9.00;;;5.93;;
5549;SDS011;2798;42.716;23.256;2023-02-24T09:03:07;10.43;;;6.00;;
5549;SDS011;2798;42.716;23.256;2023-02-24T09:05:32;10.13;;;6.50;;
5549;SDS011;2798;42.716;23.256;2023-02-24T09:08:03;11.20;;;6.70;;
5549;SDS011;2798;42.716;23.256;2023-02-24T09:10:28;8.83;;;6.40;;
5549;SDS011;2798;42.716;23.256;2023-02-24T09:12:54;10.80;;;6.53;;
5549;SDS011;2798;42.716;23.256;2023-02-24T09:15:19;12.93;;;7.70;;
5549;SDS011;2798;42.716;23.256;2023-02-24T09:17:46;14.23;;;8.67;;
5549;SDS011;2798;42.716;23.256;2023-02-24T09:20:13;17.00;;;7.93;;
5549;SDS011;2798;42.716;23.256;2023-02-24T09:22:51;11.53;;;6.60;;
5549;SDS011;2798;42.716;23.256;2023-02-24T09:25:22;17.47;;;8.27;;
5549;SDS011;2798;42.716;23.256;2023-02-24T09:30:33;12.00;;;7.30;;
5549;SDS011;2798;42.716;23.256;2023-02-24T09:33:09;11.60;;;6.67;;
5549;SDS011;2798;42.716;23.256;2023-02-24T09:35:57;10.40;;;6.50;;
5549;SDS011;2798;42.716;23.256;2023-02-24T09:41:21;11.60;;;7.03;;
5549;SDS011;2798;42.716;23.256;2023-02-24T09:43:55;13.07;;;7.17;;
5549;SDS011;2798;42.716;23.256;2023-02-24T09:46:23;12.00;;;7.50;;
5549;SDS011;2798;42.716;23.256;2023-02-24T09:48:57;10.90;;;7.13;;
5549;SDS011;2798;42.716;23.256;2023-02-24T09:51:29;13.30;;;7.50;;
5549;SDS011;2798;42.716;23.256;2023-02-24T09:53:55;11.80;;;6.83;;
5549;SDS011;2798;42.716;23.256;2023-02-24T10:01:58;12.50;;;7.47;;
5549;SDS011;2798;42.716;23.256;2023-02-24T10:09:49;11.77;;;7.03;;
5549;SDS011;2798;42.716;23.256;2023-02-24T10:14:47;14.23;;;7.67;;
5549;SDS011;2798;42.716;23.256;2023-02-24T10:17:20;13.40;;;8.10;;
5549;SDS011;2798;42.716;23.256;2023-02-24T10:19:49;13.20;;;8.23;;
5549;SDS011;2798;42.716;23.256;2023-02-24T10:22:34;16.80;;;8.17;;
5549;SDS011;2798;42.716;23.256;2023-02-24T10:33:04;11.10;;;7.23;;
5549;SDS011;2798;42.716;23.256;2023-02-24T10:35:30;15.43;;;8.20;;
5549;SDS011;2798;42.716;23.256;2023-02-24T10:38:01;13.87;;;7.10;;
5549;SDS011;2798;42.716;23.256;2023-02-24T10:40:32;21.20;;;8.10;;
5549;SDS011;2798;42.716;23.256;2023-02-24T10:43:14;15.33;;;8.50;;
5549;SDS011;2798;42.716;23.256;2023-02-24T10:45:42;15.83;;;8.90;;
5549;SDS011;2798;42.716;23.256;2023-02-24T10:48:14;18.93;;;8.73;;
5549;SDS011;2798;42.716;23.256;2023-02-24T10:50:40;22.60;;;10.00;;
5549;SDS011;2798;42.716;23.256;2023-02-24T10:53:10;17.10;;;10.00;;
5549;SDS011;2798;42.716;23.256;2023-02-24T10:55:50;15.50;;;7.60;;
5549;SDS011;2798;42.716;23.256;2023-02-24T11:00:53;17.43;;;9.13;;
5549;SDS011;2798;42.716;23.256;2023-02-24T11:03:38;16.33;;;8.60;;
5549;SDS011;2798;42.716;23.256;2023-02-24T11:06:19;12.60;;;8.00;;
5549;SDS011;2798;42.716;23.256;2023-02-24T11:09:19;17.20;;;9.20;;
5549;SDS011;2798;42.716;23.256;2023-02-24T11:12:03;16.20;;;8.50;;
5549;SDS011;2798;42.716;23.256;2023-02-24T11:14:57;13.20;;;7.90;;
5549;SDS011;2798;42.716;23.256;2023-02-24T11:18:00;15.53;;;9.60;;
5549;SDS011;2798;42.716;23.256;2023-02-24T11:20:28;12.97;;;7.90;;
5549;SDS011;2798;42.716;23.256;2023-02-24T11:22:53;12.10;;;7.83;;
5549;SDS011;2798;42.716;23.256;2023-02-24T11:25:23;16.80;;;8.87;;
5549;SDS011;2798;42.716;23.256;2023-02-24T11:27:50;19.77;;;9.23;;
5549;SDS011;2798;42.716;23.256;2023-02-24T11:30:19;16.87;;;9.67;;
5549;SDS011;2798;42.716;23.256;2023-02-24T11:38:15;19.00;;;10.07;;
5549;SDS011;2798;42.716;23.256;2023-02-24T11:40:44;13.07;;;8.83;;
5549;SDS011;2798;42.716;23.256;2023-02-24T11:43:20;16.97;;;10.50;;
5549;SDS011;2798;42.716;23.256;2023-02-24T11:53:39;20.30;;;10.00;;
5549;SDS011;2798;42.716;23.256;2023-02-24T11:56:10;20.03;;;9.70;;
5549;SDS011;2798;42.716;23.256;2023-02-24T11:59:21;19.07;;;10.90;;
5549;SDS011;2798;42.716;23.256;2023-02-24T12:09:26;16.77;;;10.43;;
5549;SDS011;2798;42.716;23.256;2023-02-24T12:12:02;17.20;;;10.40;;
5549;SDS011;2798;42.716;23.256;2023-02-24T12:14:36;14.70;;;9.87;;
5549;SDS011;2798;42.716;23.256;2023-02-24T12:17:18;20.87;;;11.50;;
5549;SDS011;2798;42.716;23.256;2023-02-24T12:22:18;17.00;;;11.67;;
5549;SDS011;2798;42.716;23.256;2023-02-24T12:24:46;22.60;;;11.50;;
5549;SDS011;2798;42.716;23.256;2023-02-24T12:55:44;15.57;;;10.20;;
5549;SDS011;2798;42.716;23.256;2023-02-24T12:58:31;17.83;;;9.77;;
5549;SDS011;2798;42.716;23.256;2023-02-24T13:08:42;20.53;;;10.60;;
5549;SDS011;2798;42.716;23.256;2023-02-24T13:11:14;18.43;;;11.30;;
5549;SDS011;2798;42.716;23.256;2023-02-24T13:16:28;18.03;;;10.67;;
5549;SDS011;2798;42.716;23.256;2023-02-24T13:19:02;20.43;;;11.33;;
5549;SDS011;2798;42.716;23.256;2023-02-24T13:21:27;15.17;;;10.20;;
5549;SDS011;2798;42.716;23.256;2023-02-24T13:26:22;18.53;;;11.67;;
5549;SDS011;2798;42.716;23.256;2023-02-24T13:28:55;18.80;;;12.60;;
5549;SDS011;2798;42.716;23.256;2023-02-24T13:31:22;19.90;;;13.30;;
5549;SDS011;2798;42.716;23.256;2023-02-24T13:33:50;21.23;;;13.60;;
5549;SDS011;2798;42.716;23.256;2023-02-24T13:36:17;24.23;;;14.57;;
5549;SDS011;2798;42.716;23.256;2023-02-24T13:38:47;20.07;;;14.30;;
5549;SDS011;2798;42.716;23.256;2023-02-24T13:46:22;25.17;;;15.97;;
5549;SDS011;2798;42.716;23.256;2023-02-24T13:48:53;22.50;;;14.63;;
5549;SDS011;2798;42.716;23.256;2023-02-24T13:54:08;24.73;;;13.20;;
5549;SDS011;2798;42.716;23.256;2023-02-24T13:59:25;17.67;;;12.57;;
5549;SDS011;2798;42.716;23.256;2023-02-24T14:02:01;16.23;;;11.73;;
5549;SDS011;2798;42.716;23.256;2023-02-24T14:04:31;16.93;;;11.27;;
5549;SDS011;2798;42.716;23.256;2023-02-24T14:07:01;16.87;;;11.90;;
5549;SDS011;2798;42.716;23.256;2023-02-24T14:09:29;22.03;;;12.90;;
5549;SDS011;2798;42.716;23.256;2023-02-24T14:11:57;15.13;;;11.40;;
5549;SDS011;2798;42.716;23.256;2023-02-24T14:14:23;16.27;;;11.07;;
5549;SDS011;2798;42.716;23.256;2023-02-24T14:16:49;17.13;;;11.50;;
5549;SDS011;2798;42.716;23.256;2023-02-24T14:19:15;15.07;;;10.83;;
5549;SDS011;2798;42.716;23.256;2023-02-24T14:21:51;18.63;;;11.40;;
5549;SDS011;2798;42.716;23.256;2023-02-24T14:24:17;17.70;;;11.23;;
5549;SDS011;2798;42.716;23.256;2023-02-24T14:26:46;15.80;;;10.90;;
5549;SDS011;2798;42.716;23.256;2023-02-24T14:29:13;16.53;;;10.30;;
5549;SDS011;2798;42.716;23.256;2023-02-24T14:31:40;18.23;;;11.10;;
5549;SDS011;2798;42.716;23.256;2023-02-24T14:34:11;15.47;;;10.60;;
5549;SDS011;2798;42.716;23.256;2023-02-24T14:36:41;18.40;;;11.87;;
5549;SDS011;2798;42.716;23.256;2023-02-24T14:41:35;17.07;;;11.70;;
5549;SDS011;2798;42.716;23.256;2023-02-24T14:44:10;18.10;;;11.60;;
5549;SDS011;2798;42.716;23.256;2023-02-24T14:46:47;20.43;;;10.97;;
5549;SDS011;2798;42.716;23.256;2023-02-24T14:49:15;16.93;;;11.13;;
5549;SDS011;2798;42.716;23.256;2023-02-24T14:51:42;18.60;;;12.00;;
5549;SDS011;2798;42.716;23.256;2023-02-24T14:54:07;14.37;;;11.30;;
5549;SDS011;2798;42.716;23.256;2023-02-24T14:56:35;14.90;;;10.90;;
5549;SDS011;2798;42.716;23.256;2023-02-24T14:59:01;16.73;;;11.07;;
5549;SDS011;2798;42.716;23.256;2023-02-24T15:01:31;18.30;;;11.33;;
5549;SDS011;2798;42.716;23.256;2023-02-24T15:03:59;16.80;;;11.90;;
5549;SDS011;2798;42.716;23.256;2023-02-24T15:06:26;18.03;;;12.60;;
5549;SDS011;2798;42.716;23.256;2023-02-24T15:08:59;25.33;;;13.10;;
5549;SDS011;2798;42.716;23.256;2023-02-24T15:11:26;19.80;;;12.50;;
5549;SDS011;2798;42.716;23.256;2023-02-24T15:14:00;18.47;;;12.50;;
5549;SDS011;2798;42.716;23.256;2023-02-24T15:16:32;18.63;;;12.73;;
5549;SDS011;2798;42.716;23.256;2023-02-24T15:19:00;20.13;;;13.20;;
5549;SDS011;2798;42.716;23.256;2023-02-24T15:21:33;19.10;;;11.93;;
5549;SDS011;2798;42.716;23.256;2023-02-24T15:24:03;19.60;;;12.33;;
5549;SDS011;2798;42.716;23.256;2023-02-24T15:26:30;21.40;;;12.77;;
5549;SDS011;2798;42.716;23.256;2023-02-24T15:28:56;21.50;;;13.10;;
5549;SDS011;2798;42.716;23.256;2023-02-24T15:31:22;22.20;;;14.40;;
5549;SDS011;2798;42.716;23.256;2023-02-24T15:34:00;21.47;;;12.90;;
5549;SDS011;2798;42.716;23.256;2023-02-24T15:36:27;21.17;;;13.47;;
5549;SDS011;2798;42.716;23.256;2023-02-24T15:39:16;21.60;;;14.57;;
5549;SDS011;2798;42.716;23.256;2023-02-24T15:41:41;23.03;;;14.47;;
5549;SDS011;2798;42.716;23.256;2023-02-24T15:44:21;23.40;;;14.73;;
5549;SDS011;2798;42.716;23.256;2023-02-24T15:46:47;22.83;;;14.50;;
5549;SDS011;2798;42.716;23.256;2023-02-24T15:49:12;24.13;;;14.03;;
5549;SDS011;2798;42.716;23.256;2023-02-24T15:51:41;24.90;;;15.03;;
5549;SDS011;2798;42.716;23.256;2023-02-24T15:54:31;28.80;;;15.40;;
5549;SDS011;2798;42.716;23.256;2023-02-24T15:56:58;21.43;;;14.60;;
5549;SDS011;2798;42.716;23.256;2023-02-24T15:59:23;26.33;;;14.90;;
5549;SDS011;2798;42.716;23.256;2023-02-24T16:01:48;26.20;;;15.23;;
5549;SDS011;2798;42.716;23.256;2023-02-24T16:04:16;24.50;;;15.20;;
5549;SDS011;2798;42.716;23.256;2023-02-24T16:06:42;26.47;;;15.43;;
5549;SDS011;2798;42.716;23.256;2023-02-24T16:09:11;24.90;;;16.43;;
5549;SDS011;2798;42.716;23.256;2023-02-24T16:11:37;26.03;;;16.87;;
5549;SDS011;2798;42.716;23.256;2023-02-24T16:14:03;25.00;;;15.80;;
5549;SDS011;2798;42.716;23.256;2023-02-24T16:16:29;27.23;;;16.73;;
5549;SDS011;2798;42.716;23.256;2023-02-24T16:18:57;31.40;;;17.00;;
5549;SDS011;2798;42.716;23.256;2023-02-24T16:21:22;28.97;;;18.87;;
5549;SDS011;2798;42.716;23.256;2023-02-24T16:23:47;29.97;;;19.43;;
5549;SDS011;2798;42.716;23.256;2023-02-24T16:26:15;28.70;;;18.23;;
5549;SDS011;2798;42.716;23.256;2023-02-24T16:28:41;36.43;;;21.47;;
5549;SDS011;2798;42.716;23.256;2023-02-24T16:31:06;41.77;;;23.27;;
5549;SDS011;2798;42.716;23.256;2023-02-24T16:33:32;39.43;;;24.73;;
5549;SDS011;2798;42.716;23.256;2023-02-24T16:35:59;41.80;;;26.13;;
5549;SDS011;2798;42.716;23.256;2023-02-24T16:38:24;38.20;;;25.33;;
5549;SDS011;2798;42.716;23.256;2023-02-24T16:40:50;37.80;;;25.60;;
5549;SDS011;2798;42.716;23.256;2023-02-24T16:43:15;41.60;;;25.33;;
5549;SDS011;2798;42.716;23.256;2023-02-24T16:45:41;41.23;;;24.90;;
5549;SDS011;2798;42.716;23.256;2023-02-24T16:48:20;42.53;;;26.73;;
5549;SDS011;2798;42.716;23.256;2023-02-24T16:50:46;44.07;;;25.40;;
5549;SDS011;2798;42.716;23.256;2023-02-24T16:53:13;42.83;;;25.47;;
5549;SDS011;2798;42.716;23.256;2023-02-24T16:55:38;41.10;;;24.90;;
5549;SDS011;2798;42.716;23.256;2023-02-24T16:58:04;39.37;;;22.97;;
5549;SDS011;2798;42.716;23.256;2023-02-24T17:00:29;36.63;;;21.37;;
5549;SDS011;2798;42.716;23.256;2023-02-24T17:02:54;41.80;;;21.20;;
5549;SDS011;2798;42.716;23.256;2023-02-24T17:05:23;34.23;;;19.20;;
5549;SDS011;2798;42.716;23.256;2023-02-24T17:07:50;31.83;;;20.10;;
5549;SDS011;2798;42.716;23.256;2023-02-24T17:10:15;36.43;;;21.53;;
5549;SDS011;2798;42.716;23.256;2023-02-24T17:12:41;38.23;;;22.37;;
5549;SDS011;2798;42.716;23.256;2023-02-24T17:15:07;39.10;;;22.73;;
5549;SDS011;2798;42.716;23.256;2023-02-24T17:17:35;40.77;;;20.93;;
5549;SDS011;2798;42.716;23.256;2023-02-24T17:20:01;35.30;;;20.40;;
5549;SDS011;2798;42.716;23.256;2023-02-24T17:22:26;32.80;;;20.60;;
5549;SDS011;2798;42.716;23.256;2023-02-24T17:24:52;30.27;;;19.83;;
5549;SDS011;2798;42.716;23.256;2023-02-24T17:27:17;32.40;;;20.60;;
5549;SDS011;2798;42.716;23.256;2023-02-24T17:29:42;39.20;;;23.17;;
5549;SDS011;2798;42.716;23.256;2023-02-24T17:32:08;39.43;;;23.03;;
5549;SDS011;2798;42.716;23.256;2023-02-24T17:34:33;51.83;;;32.70;;
5549;SDS011;2798;42.716;23.256;2023-02-24T17:36:58;57.77;;;32.03;;